Time;durP1;ratioP1;P1;durP2;ratioP2;P2;SDS_P1;SDS_P2;PMS_P1;PMS_P2;Temp;Humidity;BMP_temperature;BMP_pressure;BME280_temperature;BME280_humidity;BME280_pressure;Samples;Min_cycle;Max_cycle;Signal;HPM_P1;HPM_P2
2023/12/06 00:01:53;;;;;;;34.78;27.75;;;;;;;3.98;100.00;100964.78;5237557;28;20044;-76
2023/12/06 00:04:25;;;;;;;35.35;26.25;;;;;;;4.00;100.00;100962.06;5232551;28;20256;-76
2023/12/06 00:06:57;;;;;;;32.83;27.33;;;;;;;3.94;100.00;100950.31;5241843;28;20032;-76
2023/12/06 00:09:29;;;;;;;33.40;26.63;;;;;;;4.06;100.00;100962.59;5235537;28;20034;-76
2023/12/06 00:12:00;;;;;;;34.85;26.13;;;;;;;4.06;100.00;100964.34;5242186;28;20394;-76
2023/12/06 00:14:32;;;;;;;36.55;28.17;;;;;;;4.02;100.00;100970.63;5239351;28;20082;-76
2023/12/06 00:17:04;;;;;;;34.75;27.35;;;;;;;4.03;100.00;100967.94;5244263;28;20051;-76
2023/12/06 00:19:36;;;;;;;35.20;27.98;;;;;;;4.02;100.00;100974.03;5235980;28;20031;-76
2023/12/06 00:22:08;;;;;;;33.10;26.52;;;;;;;4.03;100.00;100967.09;5238268;28;20037;-76
2023/12/06 00:24:40;;;;;;;33.45;26.75;;;;;;;4.03;100.00;100977.47;5239311;28;20033;-77
2023/12/06 00:27:12;;;;;;;35.55;27.38;;;;;;;4.04;100.00;100984.31;5237936;28;20036;-76
2023/12/06 00:29:44;;;;;;;34.50;27.67;;;;;;;4.03;100.00;100980.91;5234820;28;20033;-76
2023/12/06 00:32:15;;;;;;;33.63;27.63;;;;;;;4.03;100.00;100982.66;5243678;28;20045;-76
2023/12/06 00:34:47;;;;;;;34.00;27.50;;;;;;;4.02;100.00;100981.81;5247090;28;20041;-76
2023/12/06 00:37:19;;;;;;;33.10;26.58;;;;;;;4.07;100.00;100986.75;5246316;28;20415;-76
2023/12/06 00:39:51;;;;;;;33.90;27.50;;;;;;;4.02;100.00;100987.00;5249371;28;20032;-76
2023/12/06 00:42:23;;;;;;;35.00;26.70;;;;;;;4.05;100.00;100991.16;5250838;28;20047;-76
2023/12/06 00:44:55;;;;;;;31.23;25.95;;;;;;;4.05;100.00;100999.81;5247244;28;20044;-77
2023/12/06 00:47:28;;;;;;;32.40;26.88;;;;;;;4.05;100.00;100998.94;5251820;28;20036;-76
2023/12/06 00:50:00;;;;;;;31.43;25.47;;;;;;;4.10;100.00;101004.72;5245930;28;20029;-76
2023/12/06 00:52:32;;;;;;;31.33;26.13;;;;;;;4.07;100.00;101004.91;5247173;28;20301;-77
2023/12/06 00:55:04;;;;;;;33.35;27.00;;;;;;;3.95;100.00;100995.19;5249183;28;20033;-76
2023/12/06 00:57:36;;;;;;;33.25;25.42;;;;;;;4.06;100.00;101005.81;5246382;28;20033;-77
2023/12/06 01:00:08;;;;;;;30.80;25.73;;;;;;;4.09;100.00;101014.28;5249953;28;20405;-76
2023/12/06 01:02:40;;;;;;;29.48;25.13;;;;;;;4.11;100.00;101022.78;5248270;28;20029;-76
2023/12/06 01:05:12;;;;;;;29.95;24.83;;;;;;;4.11;100.00;101025.38;5250347;28;20030;-76
2023/12/06 01:07:44;;;;;;;28.88;23.40;;;;;;;4.11;100.00;101027.97;5247677;28;20114;-76
2023/12/06 01:10:16;;;;;;;29.85;23.58;;;;;;;4.11;100.00;101020.19;5248915;28;20489;-76
2023/12/06 01:12:48;;;;;;;27.33;22.65;;;;;;;4.10;100.00;101031.50;5249637;28;20497;-76
2023/12/06 01:15:20;;;;;;;28.33;23.83;;;;;;;4.12;100.00;101027.03;5247960;28;20036;-76
2023/12/06 01:17:52;;;;;;;27.77;21.88;;;;;;;4.12;100.00;101032.22;5248951;28;20039;-76
2023/12/06 01:20:24;;;;;;;28.23;23.67;;;;;;;4.14;100.00;101034.75;5249891;28;20505;-76
2023/12/06 01:22:55;;;;;;;27.00;22.77;;;;;;;4.06;100.00;101024.81;5245822;28;20045;-76
2023/12/06 01:25:27;;;;;;;26.23;22.55;;;;;;;4.12;100.00;101039.16;5249216;28;20032;-77
2023/12/06 01:28:00;;;;;;;27.88;22.63;;;;;;;4.15;100.00;101041.59;5248557;28;20029;-76
2023/12/06 01:30:32;;;;;;;23.83;21.10;;;;;;;4.14;100.00;101053.72;5247290;28;20041;-76
2023/12/06 01:33:03;;;;;;;24.95;21.90;;;;;;;4.15;100.00;101050.22;5239031;28;20053;-76
2023/12/06 01:35:35;;;;;;;27.75;21.55;;;;;;;4.17;100.00;101051.88;5237858;28;20038;-76
2023/12/06 01:38:07;;;;;;;23.52;21.02;;;;;;;4.15;100.00;101054.56;5239479;28;20253;-77
2023/12/06 01:40:40;;;;;;;25.02;21.30;;;;;;;4.19;100.00;101057.84;5239665;28;20299;-76
2023/12/06 01:43:11;;;;;;;24.75;20.63;;;;;;;4.18;100.00;101061.34;5241773;28;20033;-76
2023/12/06 01:45:43;;;;;;;25.48;20.60;;;;;;;4.21;100.00;101054.25;5239727;28;20577;-76
2023/12/06 01:48:17;;;;;;;24.48;21.10;;;;;;;4.23;100.00;101062.75;5243000;28;20367;-76
2023/12/06 01:50:50;;;;;;;24.17;21.17;;;;;;;4.22;100.00;101073.22;5235958;28;20028;-76
2023/12/06 01:53:22;;;;;;;25.08;21.90;;;;;;;4.19;100.00;101061.25;5234853;28;20036;-77
2023/12/06 01:55:54;;;;;;;24.85;20.90;;;;;;;4.14;100.00;101071.06;5236950;28;20017;-76
2023/12/06 01:58:28;;;;;;;22.33;18.63;;;;;;;4.15;100.00;101070.13;5240953;28;20041;-76
2023/12/06 02:00:59;;;;;;;23.23;20.27;;;;;;;4.22;100.00;101070.63;5238913;28;20206;-76
2023/12/06 02:03:33;;;;;;;21.55;18.80;;;;;;;4.22;100.00;101071.47;5240527;28;20536;-76
2023/12/06 02:06:07;;;;;;;;;;;;;;;4.84;100.00;101079.25;5240184;28;20028;-76
2023/12/06 02:08:41;;;;;;;20.42;17.85;;;;;;;4.33;100.00;101081.25;5240338;28;19939;-77
2023/12/06 02:11:13;;;;;;;20.75;17.90;;;;;;;4.28;100.00;101076.34;5239592;28;20458;-76
2023/12/06 02:13:45;;;;;;;20.90;18.60;;;;;;;4.27;100.00;101092.78;5234177;28;20040;-76
2023/12/06 02:16:19;;;;;;;21.48;18.20;;;;;;;4.29;100.00;101090.13;5239618;28;20029;-77
2023/12/06 02:18:51;;;;;;;22.02;18.83;;;;;;;4.27;100.00;101092.78;5239720;28;20032;-76
2023/12/06 02:21:23;;;;;;;22.38;18.55;;;;;;;4.28;100.00;101088.44;5237206;28;20033;-76
2023/12/06 02:23:57;;;;;;;21.88;17.88;;;;;;;4.33;100.00;101089.03;5237189;28;20833;-76
2023/12/06 02:26:29;;;;;;;20.30;17.25;;;;;;;4.30;100.00;101084.00;5238417;28;20390;-76
2023/12/06 02:29:01;;;;;;;21.75;17.45;;;;;;;4.32;100.00;101082.19;5238124;28;20041;-77
2023/12/06 02:31:33;;;;;;;18.17;16.23;;;;;;;4.34;100.00;101086.34;5241164;28;20049;-76
2023/12/06 02:34:09;;;;;;;18.70;16.50;;;;;;;4.40;100.00;101087.78;5249414;28;20033;-76
2023/12/06 02:36:46;;;;;;;20.13;16.42;;;;;;;4.30;100.00;101087.44;5248822;28;20036;-76
2023/12/06 02:39:18;;;;;;;20.52;17.23;;;;;;;4.36;100.00;101088.88;5245941;28;20033;-76
2023/12/06 02:41:50;;;;;;;19.33;16.67;;;;;;;4.32;100.00;101082.19;5248423;28;20039;-76
2023/12/06 02:44:22;;;;;;;17.55;15.65;;;;;;;4.38;100.00;101089.63;5238039;28;20438;-76
2023/12/06 02:46:54;;;;;;;19.17;16.90;;;;;;;4.36;100.00;101081.09;5240805;28;20064;-77
2023/12/06 02:49:26;;;;;;;18.60;15.95;;;;;;;4.42;100.00;101090.28;5244109;28;20038;-77
2023/12/06 02:51:59;;;;;;;17.75;15.85;;;;;;;4.41;100.00;101086.03;5245027;28;20066;-76
2023/12/06 02:54:31;;;;;;;18.48;15.13;;;;;;;4.47;100.00;101088.25;5246651;28;20025;-76
2023/12/06 02:57:03;;;;;;;20.80;16.40;;;;;;;4.46;100.00;101096.97;5245587;28;20037;-77
2023/12/06 02:59:35;;;;;;;17.67;15.75;;;;;;;4.47;100.00;101104.69;5247366;28;20029;-77
2023/12/06 03:02:07;;;;;;;19.05;15.93;;;;;;;4.48;100.00;101097.75;5246526;28;20479;-76
2023/12/06 03:04:38;;;;;;;17.95;16.05;;;;;;;4.46;100.00;101094.38;5247657;28;20029;-76
2023/12/06 03:07:10;;;;;;;20.23;16.48;;;;;;;4.39;100.00;101081.78;5245962;28;20033;-76
2023/12/06 03:09:42;;;;;;;19.13;15.27;;;;;;;4.45;100.00;101088.34;5247476;28;20021;-77
2023/12/06 03:12:14;;;;;;;21.30;16.05;;;;;;;4.46;100.00;101086.59;5247459;28;20092;-76
2023/12/06 03:14:46;;;;;;;17.75;15.68;;;;;;;4.47;100.00;101086.53;5248545;28;20036;-76
2023/12/06 03:17:18;;;;;;;17.92;15.75;;;;;;;4.47;100.00;101076.16;5246962;28;20067;-76
2023/12/06 03:19:50;;;;;;;18.02;15.50;;;;;;;4.53;100.00;101090.53;5247032;28;20063;-76
2023/12/06 03:22:22;;;;;;;17.38;15.18;;;;;;;4.52;100.00;101097.47;5248665;28;20040;-76
2023/12/06 03:24:53;;;;;;;18.25;14.73;;;;;;;4.54;100.00;101108.59;5246907;28;20044;-76
2023/12/06 03:27:25;;;;;;;17.70;15.07;;;;;;;4.54;100.00;101100.81;5248810;28;20024;-77
2023/12/06 03:29:58;;;;;;;17.52;15.27;;;;;;;4.54;100.00;101103.41;5251872;28;20120;-76
2023/12/06 03:32:30;;;;;;;16.45;14.75;;;;;;;4.56;100.00;101119.75;5244062;28;20037;-76
2023/12/06 03:35:01;;;;;;;16.80;14.93;;;;;;;4.54;100.00;101111.19;5242338;28;20136;-76
2023/12/06 03:37:33;;;;;;;19.30;15.15;;;;;;;4.57;100.00;101112.78;5236937;28;20037;-76
2023/12/06 03:40:06;;;;;;;16.73;14.85;;;;;;;4.56;100.00;101117.13;5237222;28;20033;-76
2023/12/06 03:42:38;;;;;;;19.30;16.03;;;;;;;4.60;100.00;101118.66;5239121;28;20040;-76
2023/12/06 03:45:12;;;;;;;18.90;15.05;;;;;;;4.61;100.00;101116.88;5243332;28;21568;-76
2023/12/06 03:47:45;;;;;;;19.65;14.73;;;;;;;4.58;100.00;101117.91;5238174;28;20086;-76
2023/12/06 03:50:17;;;;;;;18.60;14.85;;;;;;;4.63;100.00;101121.06;5237892;28;21042;-76
2023/12/06 03:52:49;;;;;;;17.90;16.00;;;;;;;4.60;100.00;101117.81;5240556;28;20044;-77
2023/12/06 03:55:21;;;;;;;17.20;14.32;;;;;;;4.66;100.00;101124.41;5238053;28;20043;-76
2023/12/06 03:57:53;;;;;;;18.43;15.60;;;;;;;4.68;100.00;101125.16;5238595;28;20036;-76
2023/12/06 04:00:25;;;;;;;16.88;14.77;;;;;;;4.68;100.00;101127.75;5238832;28;20288;-76
2023/12/06 04:02:57;;;;;;;17.42;15.57;;;;;;;4.69;100.00;101130.25;5243657;28;20479;-76
2023/12/06 04:05:29;;;;;;;16.55;14.73;;;;;;;4.72;100.00;101124.06;5235846;28;20084;-76
2023/12/06 04:08:01;;;;;;;19.73;14.30;;;;;;;4.69;100.00;101122.47;5243114;28;20785;-76
2023/12/06 04:10:33;;;;;;;16.90;15.10;;;;;;;4.62;100.00;101122.00;5240957;28;20028;-77
2023/12/06 04:13:04;;;;;;;16.90;15.07;;;;;;;4.63;100.00;101126.25;5236498;28;20041;-76
2023/12/06 04:15:36;;;;;;;18.25;14.85;;;;;;;4.74;100.00;101135.22;5240404;28;20028;-76
2023/12/06 04:18:08;;;;;;;17.98;15.23;;;;;;;4.75;100.00;101139.47;5236454;28;20041;-76
2023/12/06 04:20:40;;;;;;;18.23;14.48;;;;;;;4.71;100.00;101128.44;5244474;28;20033;-76
2023/12/06 04:23:12;;;;;;;16.70;14.93;;;;;;;4.75;100.00;101140.31;5239962;28;20025;-77
2023/12/06 04:25:46;;;;;;;18.52;15.05;;;;;;;4.79;100.00;101138.38;5242733;28;20029;-76
2023/12/06 04:28:18;;;;;;;19.92;16.30;;;;;;;4.82;100.00;101146.84;5240229;28;20041;-76
2023/12/06 04:30:50;;;;;;;18.58;16.00;;;;;;;4.83;100.00;101151.09;5240205;28;20045;-76
2023/12/06 04:33:22;;;;;;;19.77;15.38;;;;;;;4.86;100.00;101150.09;5239293;28;20405;-76
2023/12/06 04:35:54;;;;;;;17.48;14.90;;;;;;;4.87;100.00;101154.38;5238826;28;20037;-76
2023/12/06 04:38:26;;;;;;;17.83;15.85;;;;;;;4.91;100.00;101155.88;5248603;28;20108;-76
2023/12/06 04:40:58;;;;;;;17.85;15.90;;;;;;;4.93;100.00;101159.22;5241335;28;20041;-77
2023/12/06 04:43:30;;;;;;;19.20;16.10;;;;;;;4.93;100.00;101159.22;5238835;28;20037;-76
2023/12/06 04:46:02;;;;;;;19.85;15.77;;;;;;;4.97;100.00;101163.31;5238503;28;20044;-76
2023/12/06 04:48:34;;;;;;;18.42;14.93;;;;;;;4.99;100.00;101160.63;5245112;28;20117;-76
2023/12/06 04:51:06;;;;;;;18.35;15.90;;;;;;;5.02;100.00;101165.66;5239158;28;20029;-76
2023/12/06 04:53:37;;;;;;;18.25;15.70;;;;;;;5.00;100.00;101168.34;5238540;28;20036;-76
2023/12/06 04:56:11;;;;;;;18.42;15.85;;;;;;;4.94;100.00;101150.50;5237193;28;20051;-76
2023/12/06 04:58:43;;;;;;;18.98;16.13;;;;;;;5.00;100.00;101168.34;5241134;28;20049;-76
2023/12/06 05:01:15;;;;;;;18.30;16.38;;;;;;;5.00;100.00;101168.34;5239032;28;20033;-77
2023/12/06 05:03:47;;;;;;;21.65;17.20;;;;;;;4.99;100.00;101168.41;5236566;28;20040;-77
2023/12/06 05:06:19;;;;;;;19.73;16.58;;;;;;;5.02;100.00;101170.84;5238075;28;20413;-76
2023/12/06 05:08:51;;;;;;;20.02;16.42;;;;;;;5.02;100.00;101171.69;5240779;28;20037;-76
2023/12/06 05:11:23;;;;;;;19.98;17.20;;;;;;;5.05;100.00;101178.47;5240928;28;20039;-76
2023/12/06 05:13:55;;;;;;;18.13;16.17;;;;;;;5.05;100.00;101186.25;5234280;28;20033;-77
2023/12/06 05:16:27;;;;;;;19.13;16.50;;;;;;;5.06;100.00;101190.53;5237292;28;20041;-76
2023/12/06 05:18:59;;;;;;;19.23;16.85;;;;;;;5.07;100.00;101193.03;5242802;28;20037;-76
2023/12/06 05:21:31;;;;;;;20.95;17.73;;;;;;;5.09;100.00;101191.19;5216756;28;20848;-76
2023/12/06 05:24:03;;;;;;;19.27;17.15;;;;;;;5.05;100.00;101179.31;5238875;28;20398;-76
2023/12/06 05:26:34;;;;;;;19.40;16.45;;;;;;;5.07;100.00;101193.03;5221896;28;20037;-76
2023/12/06 05:29:06;;;;;;;18.25;15.88;;;;;;;5.10;100.00;101199.81;5241544;28;20040;-76
2023/12/06 05:31:38;;;;;;;19.20;16.55;;;;;;;5.07;100.00;101193.03;5238397;28;20033;-76
2023/12/06 05:34:10;;;;;;;20.80;16.67;;;;;;;5.06;100.00;101193.13;5248004;28;20037;-76
2023/12/06 05:36:42;;;;;;;21.55;17.65;;;;;;;5.09;100.00;101200.75;5249405;28;20056;-76
2023/12/06 05:39:14;;;;;;;19.50;16.85;;;;;;;5.09;100.00;101198.97;5249286;28;20033;-76
2023/12/06 05:41:46;;;;;;;18.70;16.23;;;;;;;5.13;100.00;101203.06;5245811;28;20040;-76
2023/12/06 05:44:18;;;;;;;19.67;17.67;;;;;;;5.15;100.00;101195.19;5250127;28;20628;-76
2023/12/06 05:46:50;;;;;;;19.77;17.42;;;;;;;5.17;100.00;101198.53;5249037;28;20379;-76
2023/12/06 05:49:22;;;;;;;21.48;18.35;;;;;;;5.18;100.00;101200.22;5245659;28;20063;-76
2023/12/06 05:51:54;;;;;;;17.97;16.10;;;;;;;5.23;100.00;101200.81;5248646;28;20047;-76
2023/12/06 05:54:26;;;;;;;23.08;17.88;;;;;;;5.20;100.00;101200.97;5248032;28;20025;-76
2023/12/06 05:56:58;;;;;;;21.58;17.80;;;;;;;5.24;100.00;101210.25;5247997;28;20029;-77
2023/12/06 05:59:30;;;;;;;23.20;17.35;;;;;;;5.23;100.00;101207.78;5247597;28;20210;-76
2023/12/06 06:02:02;;;;;;;19.10;17.02;;;;;;;5.26;100.00;101211.00;5250232;28;20029;-76
2023/12/06 06:04:34;;;;;;;21.58;17.15;;;;;;;5.26;100.00;101218.78;5247757;28;20032;-76
2023/12/06 06:07:06;;;;;;;19.80;17.45;;;;;;;5.24;100.00;101212.88;5246110;28;20029;-76
2023/12/06 06:09:38;;;;;;;20.48;16.10;;;;;;;5.31;100.00;101219.38;5247767;28;20039;-76
2023/12/06 06:12:10;;;;;;;22.20;15.80;;;;;;;5.28;100.00;101210.94;5248762;28;20497;-76
2023/12/06 06:14:42;;;;;;;18.48;16.35;;;;;;;5.34;100.00;101228.75;5245898;28;20496;-76
2023/12/06 06:17:14;;;;;;;19.20;16.20;;;;;;;5.37;100.00;101228.59;5244867;28;20725;-76
2023/12/06 06:19:46;;;;;;;18.42;15.80;;;;;;;5.37;100.00;101225.97;5249543;28;20044;-76
2023/12/06 06:22:18;;;;;;;18.50;15.45;;;;;;;5.30;100.00;101216.88;5246992;28;20049;-76
2023/12/06 06:24:50;;;;;;;17.83;15.55;;;;;;;5.30;100.00;101217.72;5246132;28;20080;-76
2023/12/06 06:27:22;;;;;;;18.00;14.95;;;;;;;5.34;100.00;101234.81;5245120;28;20036;-76
2023/12/06 06:29:53;;;;;;;20.15;15.00;;;;;;;5.36;100.00;101239.91;5245359;28;20368;-76
2023/12/06 06:32:25;;;;;;;20.70;14.77;;;;;;;5.37;100.00;101244.16;5245165;28;20041;-76
2023/12/06 06:34:57;;;;;;;18.33;14.85;;;;;;;5.36;100.00;101245.94;5245844;28;20087;-76
2023/12/06 06:37:29;;;;;;;18.75;14.98;;;;;;;5.36;100.00;101251.13;5243378;28;20119;-76
2023/12/06 06:40:07;;;;;;;17.65;14.90;;;;;;;5.37;100.00;101249.38;5245996;28;20036;-75
2023/12/06 06:42:39;;;;;;;15.95;14.02;;;;;;;5.37;100.00;101252.78;5247921;28;20056;-75
2023/12/06 06:45:10;;;;;;;20.45;14.75;;;;;;;5.37;100.00;101258.00;5245703;28;20033;-75
2023/12/06 06:47:42;;;;;;;15.65;14.05;;;;;;;5.34;100.00;101255.59;5243986;28;20044;-75
2023/12/06 06:50:15;;;;;;;18.83;14.63;;;;;;;5.41;100.00;101265.63;5243632;28;20025;-75
2023/12/06 06:52:47;;;;;;;21.13;15.38;;;;;;;5.39;100.00;101260.53;5244358;28;20032;-75
2023/12/06 06:55:19;;;;;;;17.50;14.93;;;;;;;5.34;100.00;101258.19;5246213;28;20390;-75
2023/12/06 06:57:51;;;;;;;20.23;15.75;;;;;;;5.36;100.00;101266.72;5245065;28;20095;-75
2023/12/06 07:00:22;;;;;;;19.48;15.60;;;;;;;5.36;100.00;101258.09;5245847;28;20498;-75
2023/12/06 07:02:54;;;;;;;20.60;15.25;;;;;;;5.37;100.00;101265.78;5244816;28;20364;-75
2023/12/06 07:05:26;;;;;;;18.73;15.43;;;;;;;5.40;100.00;101263.97;5248883;28;20937;-75
2023/12/06 07:07:58;;;;;;;17.67;15.25;;;;;;;5.38;100.00;101261.47;5248654;28;20035;-76
2023/12/06 07:10:30;;;;;;;19.15;14.32;;;;;;;5.40;100.00;101267.38;5250486;28;20029;-75
2023/12/06 07:13:02;;;;;;;18.05;14.55;;;;;;;5.41;100.00;101274.25;5249622;28;20035;-75
2023/12/06 07:15:34;;;;;;;19.58;14.90;;;;;;;5.41;100.00;101279.44;5250553;28;20475;-75
2023/12/06 07:18:06;;;;;;;16.85;15.05;;;;;;;5.44;100.00;101283.66;5251372;28;20055;-75
2023/12/06 07:20:38;;;;;;;21.50;15.45;;;;;;;5.42;100.00;101283.75;5249818;28;20234;-75
2023/12/06 07:23:10;;;;;;;18.17;15.13;;;;;;;5.42;100.00;101286.34;5242093;28;20494;-75
2023/12/06 07:25:42;;;;;;;18.55;14.23;;;;;;;5.41;100.00;101279.44;5246735;28;20033;-75
2023/12/06 07:28:14;;;;;;;18.40;14.43;;;;;;;5.45;100.00;101278.34;5247812;28;20035;-75
2023/12/06 07:30:46;;;;;;;18.63;14.60;;;;;;;5.42;100.00;101283.75;5247734;28;20074;-75
2023/12/06 07:33:18;;;;;;;17.63;14.40;;;;;;;5.43;100.00;101285.41;5249286;28;20053;-75
2023/12/06 07:35:50;;;;;;;17.98;14.73;;;;;;;5.37;100.00;101290.94;5251024;28;20043;-76
2023/12/06 07:38:22;;;;;;;16.75;14.52;;;;;;;5.30;100.00;101292.19;5248450;28;20032;-77
2023/12/06 07:40:53;;;;;;;18.05;15.43;;;;;;;5.25;100.00;101292.47;5250773;28;20029;-76
2023/12/06 07:43:27;;;;;;;20.05;15.52;;;;;;;5.22;100.00;101299.59;5247140;28;20405;-76
2023/12/06 07:45:59;;;;;;;;;;;;;;;5.82;100.00;101302.25;5241774;28;20033;-75
2023/12/06 07:48:31;;;;;;;18.23;14.80;;;;;;;5.17;100.00;101297.25;5250430;28;19928;-75
2023/12/06 07:51:03;;;;;;;19.45;15.73;;;;;;;5.18;100.00;101303.28;5248582;28;20041;-75
2023/12/06 07:53:35;;;;;;;17.80;15.63;;;;;;;5.05;100.00;101292.72;5249024;28;20041;-76
2023/12/06 07:56:07;;;;;;;18.02;15.65;;;;;;;5.07;100.00;101311.66;5244700;28;20436;-76
2023/12/06 07:58:39;;;;;;;16.60;14.48;;;;;;;5.01;100.00;101314.59;5247296;28;20040;-76
2023/12/06 08:01:11;;;;;;;18.27;15.27;;;;;;;5.01;100.00;101310.22;5247834;28;20033;-76
2023/12/06 08:03:44;;;;;;;18.10;15.77;;;;;;;4.98;100.00;101318.19;5245660;28;20383;-76
2023/12/06 08:06:17;;;;;;;17.88;15.35;;;;;;;4.94;100.00;101318.44;5246902;28;20736;-76
2023/12/06 08:08:53;;;;;;;17.02;14.77;;;;;;;4.94;100.00;101328.81;5249037;28;20031;-76
2023/12/06 08:11:25;;;;;;;17.77;14.70;;;;;;;4.82;100.00;101312.97;5246124;28;20037;-76
2023/12/06 08:13:57;;;;;;;19.42;15.65;;;;;;;4.90;100.00;101327.31;5246827;28;20028;-76
2023/12/06 08:16:29;;;;;;;16.55;14.40;;;;;;;4.90;100.00;101332.50;5248384;28;20576;-76
2023/12/06 08:19:01;;;;;;;17.33;14.20;;;;;;;4.85;100.00;101330.16;5245197;28;20348;-76
2023/12/06 08:21:33;;;;;;;17.65;15.00;;;;;;;4.84;100.00;101333.66;5248878;28;20038;-76
2023/12/06 08:24:06;;;;;;;17.17;14.20;;;;;;;4.83;100.00;101339.78;5245987;28;20021;-76
2023/12/06 08:26:38;;;;;;;18.50;14.68;;;;;;;4.91;100.00;101332.41;5246171;28;20034;-76
2023/12/06 08:29:11;;;;;;;17.77;13.93;;;;;;;4.85;100.00;101341.38;5248987;28;20040;-76
2023/12/06 08:31:43;;;;;;;18.45;14.32;;;;;;;4.89;100.00;101342.06;5245868;28;20038;-76
2023/12/06 08:34:15;;;;;;;16.73;14.90;;;;;;;4.86;100.00;101339.63;5249238;28;20029;-76
2023/12/06 08:36:46;;;;;;;17.13;14.63;;;;;;;4.85;100.00;101340.53;5247852;28;20033;-76
2023/12/06 08:39:18;;;;;;;20.67;15.32;;;;;;;4.84;100.00;101349.22;5250313;28;20024;-76
2023/12/06 08:41:50;;;;;;;20.27;15.52;;;;;;;4.82;100.00;101346.72;5241576;28;20037;-76
2023/12/06 08:44:22;;;;;;;21.17;15.63;;;;;;;4.92;100.00;101354.84;5240371;28;20041;-76
2023/12/06 08:46:54;;;;;;;21.98;15.68;;;;;;;4.98;100.00;101356.28;5246941;28;20052;-76
2023/12/06 08:49:26;;;;;;;21.13;15.80;;;;;;;4.95;100.00;101366.84;5246028;28;20037;-76
2023/12/06 08:51:58;;;;;;;21.25;15.52;;;;;;;5.01;100.00;101361.34;5243341;28;20505;-76
2023/12/06 08:54:30;;;;;;;18.77;14.82;;;;;;;5.02;100.00;101363.84;5245172;28;20039;-76
2023/12/06 08:57:02;;;;;;;17.98;15.68;;;;;;;5.04;100.00;101371.56;5244202;28;20043;-76
2023/12/06 08:59:33;;;;;;;17.50;13.88;;;;;;;5.04;100.00;101377.59;5239451;28;20140;-75
2023/12/06 09:02:06;;;;;;;18.02;13.80;;;;;;;5.13;100.00;101381.44;5244402;28;20036;-75
2023/12/06 09:04:38;;;;;;;19.27;13.57;;;;;;;5.13;100.00;101389.25;5247096;28;20033;-75
2023/12/06 09:07:09;;;;;;;18.05;14.45;;;;;;;5.13;100.00;101384.88;5246454;28;20371;-75
2023/12/06 09:09:45;;;;;;;16.48;14.55;;;;;;;5.25;100.00;101385.97;5242730;28;20045;-75
2023/12/06 09:12:17;;;;;;;18.85;13.70;;;;;;;5.17;100.00;101382.97;5244234;28;20028;-75
2023/12/06 09:14:49;;;;;;;17.95;14.32;;;;;;;5.16;100.00;101389.09;5243619;28;20339;-75
2023/12/06 09:17:21;;;;;;;18.20;14.05;;;;;;;5.14;100.00;101383.13;5247125;28;20055;-75
2023/12/06 09:19:53;;;;;;;18.92;15.00;;;;;;;5.17;100.00;101376.94;5241505;28;20039;-75
2023/12/06 09:22:25;;;;;;;19.45;14.52;;;;;;;5.23;100.00;101394.78;5245299;28;20041;-75
2023/12/06 09:24:57;;;;;;;19.73;15.18;;;;;;;5.27;100.00;101391.13;5244423;28;21471;-75
2023/12/06 09:27:28;;;;;;;20.25;14.70;;;;;;;5.34;100.00;101389.81;5246503;28;20506;-75
2023/12/06 09:30:00;;;;;;;16.58;13.77;;;;;;;5.37;100.00;101390.50;5242123;28;20039;-75
2023/12/06 09:32:32;;;;;;;17.83;13.70;;;;;;;5.46;100.00;101396.97;5245214;28;20057;-75
2023/12/06 09:35:07;;;;;;;15.68;13.30;;;;;;;5.52;100.00;101395.78;5246215;28;20049;-75
2023/12/06 09:37:38;;;;;;;17.17;14.05;;;;;;;5.59;100.00;101394.53;5245081;28;20116;-75
2023/12/06 09:40:11;;;;;;;16.73;13.38;;;;;;;5.64;100.00;101404.69;5245170;28;20479;-75
2023/12/06 09:42:46;;;;;;;17.13;13.70;;;;;;;5.73;100.00;101404.19;5241364;28;20037;-75
2023/12/06 09:45:19;;;;;;;18.17;13.85;;;;;;;5.82;100.00;101409.69;5245744;28;20387;-75
2023/12/06 09:47:51;;;;;;;16.60;13.48;;;;;;;5.84;100.00;101409.63;5245073;28;20048;-75
2023/12/06 09:50:27;;;;;;;21.85;14.65;;;;;;;5.96;100.00;101421.97;5243403;28;20036;-75
2023/12/06 09:53:00;;;;;;;17.50;14.48;;;;;;;5.92;100.00;101409.19;5237203;28;20028;-75
2023/12/06 09:55:35;;;;;;;16.77;12.70;;;;;;;6.10;100.00;101418.59;5243149;28;20037;-76
2023/12/06 09:58:07;;;;;;;15.45;12.25;;;;;;;6.03;100.00;101414.66;5244458;28;20033;-75
2023/12/06 10:00:39;;;;;;;17.33;13.32;;;;;;;6.15;100.00;101439.97;5244247;28;21179;-75
2023/12/06 10:03:13;;;;;;;17.83;12.00;;;;;;;6.18;100.00;101429.41;5243498;28;20757;-75
2023/12/06 10:05:54;;;;;;;15.98;12.40;;;;;;;6.38;100.00;101425.66;5243939;28;20033;-75
2023/12/06 10:08:25;;;;;;;16.95;11.77;;;;;;;6.31;100.00;101435.56;5239887;28;20045;-77
2023/12/06 10:11:05;;;;;;;16.65;12.25;;;;;;;6.49;100.00;101428.47;5246135;28;20065;-76
2023/12/06 10:13:39;;;;;;;16.45;11.90;;;;;;;6.44;100.00;101432.25;5246171;28;20037;-77
2023/12/06 10:16:16;;;;;;;20.98;12.85;;;;;;;6.57;100.00;101431.44;5243214;28;20040;-76
2023/12/06 10:18:52;;;;;;;17.08;13.15;;;;;;;6.61;100.00;101423.47;5246963;28;20041;-75
2023/12/06 10:21:24;;;;;;;17.70;13.05;;;;;;;6.56;100.00;101426.34;5242137;28;20028;-75
2023/12/06 10:23:59;;;;;;;17.48;12.68;;;;;;;6.64;100.00;101431.94;5240768;28;20446;-76
2023/12/06 10:26:31;;;;;;;21.42;12.70;;;;;;;6.73;100.00;101433.16;5235255;28;20394;-75
2023/12/06 10:29:04;;;;;;;14.98;11.85;;;;;;;6.67;100.00;101421.34;5238035;28;20040;-75
2023/12/06 10:31:42;;;;;;;14.52;10.60;;;;;;;6.83;100.00;101434.28;5240637;28;20388;-75
2023/12/06 10:34:14;;;;;;;15.75;11.35;;;;;;;6.78;100.00;101433.72;5233648;28;20049;-76
2023/12/06 10:36:47;;;;;;;16.33;10.75;;;;;;;6.78;100.00;101425.91;5231041;28;20574;-76
2023/12/06 10:39:20;;;;;;;13.10;11.05;;;;;;;6.90;100.00;101433.00;5236098;28;20037;-76
2023/12/06 10:41:54;;;;;;;15.45;11.30;;;;;;;6.85;100.00;101421.16;5236797;28;20037;-76
2023/12/06 10:44:26;;;;;;;12.27;10.07;;;;;;;6.89;100.00;101433.06;5242095;28;20044;-76
2023/12/06 10:46:59;;;;;;;16.60;10.30;;;;;;;6.89;100.00;101428.69;5241752;28;20410;-76
2023/12/06 10:49:33;;;;;;;11.85;9.32;;;;;;;6.99;100.00;101422.00;5243922;28;20044;-76
2023/12/06 10:52:05;;;;;;;13.02;10.02;;;;;;;6.93;100.00;101424.13;5238348;28;20029;-76
2023/12/06 10:54:41;;;;;;;14.30;10.87;;;;;;;6.97;100.00;101413.47;5241084;28;20044;-76
2023/12/06 10:57:14;;;;;;;17.38;11.82;;;;;;;6.92;100.00;101415.50;5233309;28;20041;-76
2023/12/06 10:59:47;;;;;;;18.73;12.15;;;;;;;7.05;100.00;101426.03;5237506;28;20025;-76
2023/12/06 11:02:19;;;;;;;18.02;12.93;;;;;;;7.07;100.00;101424.97;5238587;28;20404;-76
2023/12/06 11:04:57;;;;;;;17.03;12.33;;;;;;;7.13;100.00;101428.16;5236913;28;20047;-76
2023/12/06 11:07:48;;;;;;;18.25;12.05;;;;;;;7.23;100.00;101427.50;5241668;28;20383;-76
2023/12/06 11:10:58;;;;;;;17.25;12.38;;;;;;;7.39;100.00;101426.56;5236072;28;20036;-76
2023/12/06 11:13:52;;;;;;;18.02;12.73;;;;;;;7.38;100.00;101427.47;5204704;28;20049;-76
2023/12/06 11:16:46;;;;;;;15.38;11.45;;;;;;;7.34;100.00;101431.22;5230739;28;20033;-76
2023/12/06 11:19:19;;;;;;;19.40;11.25;;;;;;;7.33;100.00;101414.75;5238503;28;20379;-76
2023/12/06 11:21:51;;;;;;;;;;;;;;;7.96;100.00;101414.22;5237802;28;20562;-76
2023/12/06 11:24:23;;;;;;;13.95;9.95;;;;;;;7.48;100.00;101420.78;5240962;28;19928;-76
2023/12/06 11:26:56;;;;;;;13.73;9.97;;;;;;;7.44;100.00;101417.53;5241200;28;20032;-76
2023/12/06 11:29:28;;;;;;;13.73;8.63;;;;;;;7.46;100.00;101415.66;5244917;28;20041;-76
2023/12/06 11:32:00;;;;;;;10.10;7.90;;;;;;;7.46;100.00;101420.88;5241040;28;20059;-76
2023/12/06 11:34:34;;;;;;;12.97;7.53;;;;;;;7.53;100.00;101427.34;5253974;28;20041;-76